sensor_id;sensor_type;location;lat;lon;timestamp;P1;durP1;ratioP1;P2;durP2;ratioP2
22144;SDS011;11238;48.730;11.566;2024-03-07T00:00:49;37.15;;;18.45;;
22144;SDS011;11238;48.730;11.566;2024-03-07T00:03:19;37.67;;;18.77;;
22144;SDS011;11238;48.730;11.566;2024-03-07T00:05:45;36.97;;;19.10;;
22144;SDS011;11238;48.730;11.566;2024-03-07T00:08:12;32.55;;;17.30;;
22144;SDS011;11238;48.730;11.566;2024-03-07T00:10:38;36.60;;;18.10;;
22144;SDS011;11238;48.730;11.566;2024-03-07T00:13:04;34.00;;;18.23;;
22144;SDS011;11238;48.730;11.566;2024-03-07T00:15:30;34.78;;;18.83;;
22144;SDS011;11238;48.730;11.566;2024-03-07T00:17:55;35.55;;;18.35;;
22144;SDS011;11238;48.730;11.566;2024-03-07T00:20:21;39.85;;;18.95;;
22144;SDS011;11238;48.730;11.566;2024-03-07T00:22:47;34.75;;;18.83;;
22144;SDS011;11238;48.730;11.566;2024-03-07T00:25:12;41.28;;;19.77;;
22144;SDS011;11238;48.730;11.566;2024-03-07T00:27:40;35.88;;;19.13;;
22144;SDS011;11238;48.730;11.566;2024-03-07T00:30:06;34.72;;;18.15;;
22144;SDS011;11238;48.730;11.566;2024-03-07T00:32:34;33.47;;;18.73;;
22144;SDS011;11238;48.730;11.566;2024-03-07T00:35:05;35.60;;;19.13;;
22144;SDS011;11238;48.730;11.566;2024-03-07T00:37:32;35.22;;;19.52;;
22144;SDS011;11238;48.730;11.566;2024-03-07T00:39:58;33.92;;;19.10;;
22144;SDS011;11238;48.730;11.566;2024-03-07T00:42:23;36.47;;;19.98;;
22144;SDS011;11238;48.730;11.566;2024-03-07T00:44:49;39.20;;;20.23;;
22144;SDS011;11238;48.730;11.566;2024-03-07T00:47:15;36.63;;;18.83;;
22144;SDS011;11238;48.730;11.566;2024-03-07T00:49:43;35.50;;;19.25;;
22144;SDS011;11238;48.730;11.566;2024-03-07T00:52:11;36.22;;;19.30;;
22144;SDS011;11238;48.730;11.566;2024-03-07T00:54:42;34.75;;;19.27;;
22144;SDS011;11238;48.730;11.566;2024-03-07T00:57:08;35.63;;;19.88;;
22144;SDS011;11238;48.730;11.566;2024-03-07T00:59:34;37.67;;;19.90;;
22144;SDS011;11238;48.730;11.566;2024-03-07T01:02:00;42.55;;;21.13;;
22144;SDS011;11238;48.730;11.566;2024-03-07T01:04:26;34.45;;;18.75;;
22144;SDS011;11238;48.730;11.566;2024-03-07T01:06:59;37.50;;;20.20;;
22144;SDS011;11238;48.730;11.566;2024-03-07T01:09:26;41.45;;;20.17;;
22144;SDS011;11238;48.730;11.566;2024-03-07T01:11:54;37.38;;;20.17;;
22144;SDS011;11238;48.730;11.566;2024-03-07T01:14:21;41.35;;;20.25;;
22144;SDS011;11238;48.730;11.566;2024-03-07T01:16:47;40.78;;;20.23;;
22144;SDS011;11238;48.730;11.566;2024-03-07T01:19:13;40.20;;;20.42;;
22144;SDS011;11238;48.730;11.566;2024-03-07T01:21:40;34.38;;;19.50;;
22144;SDS011;11238;48.730;11.566;2024-03-07T01:24:06;36.40;;;19.20;;
22144;SDS011;11238;48.730;11.566;2024-03-07T01:26:32;37.00;;;19.55;;
22144;SDS011;11238;48.730;11.566;2024-03-07T01:29:00;36.65;;;19.30;;
22144;SDS011;11238;48.730;11.566;2024-03-07T01:31:26;35.90;;;19.27;;
22144;SDS011;11238;48.730;11.566;2024-03-07T01:33:54;40.80;;;19.25;;
22144;SDS011;11238;48.730;11.566;2024-03-07T01:36:20;38.85;;;20.00;;
22144;SDS011;11238;48.730;11.566;2024-03-07T01:38:46;36.85;;;19.02;;
22144;SDS011;11238;48.730;11.566;2024-03-07T01:41:12;35.28;;;19.52;;
22144;SDS011;11238;48.730;11.566;2024-03-07T01:43:40;37.17;;;18.83;;
22144;SDS011;11238;48.730;11.566;2024-03-07T01:46:06;38.42;;;20.42;;
22144;SDS011;11238;48.730;11.566;2024-03-07T01:48:33;38.00;;;19.33;;
22144;SDS011;11238;48.730;11.566;2024-03-07T01:50:59;40.25;;;20.05;;
22144;SDS011;11238;48.730;11.566;2024-03-07T01:53:29;42.72;;;20.65;;
22144;SDS011;11238;48.730;11.566;2024-03-07T01:55:56;40.95;;;19.98;;
22144;SDS011;11238;48.730;11.566;2024-03-07T01:58:24;32.58;;;19.27;;
22144;SDS011;11238;48.730;11.566;2024-03-07T02:00:51;40.78;;;20.23;;
22144;SDS011;11238;48.730;11.566;2024-03-07T02:03:17;46.72;;;22.10;;
22144;SDS011;11238;48.730;11.566;2024-03-07T02:05:43;43.38;;;21.50;;
22144;SDS011;11238;48.730;11.566;2024-03-07T02:08:09;41.33;;;20.77;;
22144;SDS011;11238;48.730;11.566;2024-03-07T02:10:37;41.30;;;20.30;;
22144;SDS011;11238;48.730;11.566;2024-03-07T02:13:04;43.28;;;20.08;;
22144;SDS011;11238;48.730;11.566;2024-03-07T02:15:30;38.92;;;20.05;;
22144;SDS011;11238;48.730;11.566;2024-03-07T02:17:56;43.00;;;20.33;;
22144;SDS011;11238;48.730;11.566;2024-03-07T02:20:23;38.67;;;20.77;;
22144;SDS011;11238;48.730;11.566;2024-03-07T02:22:49;42.30;;;20.30;;
22144;SDS011;11238;48.730;11.566;2024-03-07T02:25:16;43.40;;;21.30;;
22144;SDS011;11238;48.730;11.566;2024-03-07T02:27:42;47.70;;;21.10;;
22144;SDS011;11238;48.730;11.566;2024-03-07T02:30:08;41.53;;;21.27;;
22144;SDS011;11238;48.730;11.566;2024-03-07T02:32:34;40.95;;;19.48;;
22144;SDS011;11238;48.730;11.566;2024-03-07T02:35:03;42.00;;;21.73;;
22144;SDS011;11238;48.730;11.566;2024-03-07T02:37:32;42.75;;;21.33;;
22144;SDS011;11238;48.730;11.566;2024-03-07T02:39:58;40.90;;;21.77;;
22144;SDS011;11238;48.730;11.566;2024-03-07T02:42:24;39.78;;;20.75;;
22144;SDS011;11238;48.730;11.566;2024-03-07T02:44:50;43.38;;;21.60;;
22144;SDS011;11238;48.730;11.566;2024-03-07T02:47:18;44.58;;;20.67;;
22144;SDS011;11238;48.730;11.566;2024-03-07T02:49:44;44.42;;;22.15;;
22144;SDS011;11238;48.730;11.566;2024-03-07T02:52:10;45.65;;;22.25;;
22144;SDS011;11238;48.730;11.566;2024-03-07T02:54:36;49.67;;;22.92;;
22144;SDS011;11238;48.730;11.566;2024-03-07T02:57:02;45.20;;;21.42;;
22144;SDS011;11238;48.730;11.566;2024-03-07T02:59:28;43.05;;;21.70;;
22144;SDS011;11238;48.730;11.566;2024-03-07T03:01:53;46.60;;;22.58;;
22144;SDS011;11238;48.730;11.566;2024-03-07T03:04:20;47.72;;;22.08;;
22144;SDS011;11238;48.730;11.566;2024-03-07T03:06:46;45.97;;;22.10;;
22144;SDS011;11238;48.730;11.566;2024-03-07T03:09:12;42.42;;;22.45;;
22144;SDS011;11238;48.730;11.566;2024-03-07T03:11:45;45.60;;;22.27;;
22144;SDS011;11238;48.730;11.566;2024-03-07T03:14:12;45.05;;;22.30;;
22144;SDS011;11238;48.730;11.566;2024-03-07T03:16:40;43.80;;;23.00;;
22144;SDS011;11238;48.730;11.566;2024-03-07T03:19:08;39.65;;;21.38;;
22144;SDS011;11238;48.730;11.566;2024-03-07T03:21:34;43.25;;;21.15;;
22144;SDS011;11238;48.730;11.566;2024-03-07T03:24:00;40.22;;;21.17;;
22144;SDS011;11238;48.730;11.566;2024-03-07T03:26:28;42.15;;;20.75;;
22144;SDS011;11238;48.730;11.566;2024-03-07T03:28:53;44.65;;;21.92;;
22144;SDS011;11238;48.730;11.566;2024-03-07T03:31:19;46.22;;;22.38;;
22144;SDS011;11238;48.730;11.566;2024-03-07T03:33:45;42.60;;;22.30;;
22144;SDS011;11238;48.730;11.566;2024-03-07T03:36:11;40.25;;;21.63;;
22144;SDS011;11238;48.730;11.566;2024-03-07T03:38:37;45.22;;;22.45;;
22144;SDS011;11238;48.730;11.566;2024-03-07T03:41:03;43.42;;;21.40;;
22144;SDS011;11238;48.730;11.566;2024-03-07T03:43:30;43.30;;;22.08;;
22144;SDS011;11238;48.730;11.566;2024-03-07T03:45:55;47.83;;;22.88;;
22144;SDS011;11238;48.730;11.566;2024-03-07T03:48:21;49.47;;;22.45;;
22144;SDS011;11238;48.730;11.566;2024-03-07T03:50:48;44.70;;;22.65;;
22144;SDS011;11238;48.730;11.566;2024-03-07T03:53:14;47.05;;;23.80;;
22144;SDS011;11238;48.730;11.566;2024-03-07T03:55:40;43.42;;;22.38;;
22144;SDS011;11238;48.730;11.566;2024-03-07T03:58:06;39.35;;;20.75;;
22144;SDS011;11238;48.730;11.566;2024-03-07T04:00:31;40.08;;;21.95;;
22144;SDS011;11238;48.730;11.566;2024-03-07T04:02:57;45.08;;;21.88;;
22144;SDS011;11238;48.730;11.566;2024-03-07T04:05:23;49.28;;;23.20;;
22144;SDS011;11238;48.730;11.566;2024-03-07T04:07:49;41.28;;;20.30;;
22144;SDS011;11238;48.730;11.566;2024-03-07T04:10:15;46.05;;;22.60;;
22144;SDS011;11238;48.730;11.566;2024-03-07T04:12:43;44.08;;;21.45;;
22144;SDS011;11238;48.730;11.566;2024-03-07T04:15:10;40.53;;;20.23;;
22144;SDS011;11238;48.730;11.566;2024-03-07T04:17:39;45.55;;;21.73;;
22144;SDS011;11238;48.730;11.566;2024-03-07T04:20:05;43.00;;;22.40;;
22144;SDS011;11238;48.730;11.566;2024-03-07T04:22:32;42.80;;;21.63;;
22144;SDS011;11238;48.730;11.566;2024-03-07T04:24:59;46.35;;;22.45;;
22144;SDS011;11238;48.730;11.566;2024-03-07T04:27:26;45.30;;;22.00;;
22144;SDS011;11238;48.730;11.566;2024-03-07T04:29:52;44.45;;;20.95;;
22144;SDS011;11238;48.730;11.566;2024-03-07T04:32:18;41.20;;;21.75;;
22144;SDS011;11238;48.730;11.566;2024-03-07T04:34:44;43.60;;;21.45;;
22144;SDS011;11238;48.730;11.566;2024-03-07T04:37:10;45.65;;;22.08;;
22144;SDS011;11238;48.730;11.566;2024-03-07T04:39:37;41.58;;;20.83;;
22144;SDS011;11238;48.730;11.566;2024-03-07T04:42:05;46.03;;;22.52;;
22144;SDS011;11238;48.730;11.566;2024-03-07T04:44:32;52.28;;;21.08;;
22144;SDS011;11238;48.730;11.566;2024-03-07T04:47:01;41.45;;;21.38;;
22144;SDS011;11238;48.730;11.566;2024-03-07T04:49:29;44.08;;;21.42;;
22144;SDS011;11238;48.730;11.566;2024-03-07T04:51:56;44.67;;;21.83;;
22144;SDS011;11238;48.730;11.566;2024-03-07T04:54:25;46.83;;;22.77;;
22144;SDS011;11238;48.730;11.566;2024-03-07T04:56:52;44.03;;;22.00;;
22144;SDS011;11238;48.730;11.566;2024-03-07T04:59:18;40.45;;;20.88;;
22144;SDS011;11238;48.730;11.566;2024-03-07T05:01:46;40.70;;;20.75;;
22144;SDS011;11238;48.730;11.566;2024-03-07T05:04:13;43.10;;;21.65;;
22144;SDS011;11238;48.730;11.566;2024-03-07T05:06:39;50.05;;;21.70;;
22144;SDS011;11238;48.730;11.566;2024-03-07T05:09:09;48.63;;;22.25;;
22144;SDS011;11238;48.730;11.566;2024-03-07T05:11:47;48.40;;;21.52;;
22144;SDS011;11238;48.730;11.566;2024-03-07T05:14:14;43.10;;;22.27;;
22144;SDS011;11238;48.730;11.566;2024-03-07T05:16:41;43.15;;;21.67;;
22144;SDS011;11238;48.730;11.566;2024-03-07T05:19:08;43.90;;;21.02;;
22144;SDS011;11238;48.730;11.566;2024-03-07T05:21:34;43.53;;;21.10;;
22144;SDS011;11238;48.730;11.566;2024-03-07T05:24:06;44.33;;;21.88;;
22144;SDS011;11238;48.730;11.566;2024-03-07T05:26:33;43.75;;;21.20;;
22144;SDS011;11238;48.730;11.566;2024-03-07T05:29:05;45.63;;;21.90;;
22144;SDS011;11238;48.730;11.566;2024-03-07T05:31:35;41.60;;;20.77;;
22144;SDS011;11238;48.730;11.566;2024-03-07T05:34:05;40.55;;;20.40;;
22144;SDS011;11238;48.730;11.566;2024-03-07T05:36:35;48.97;;;21.50;;
22144;SDS011;11238;48.730;11.566;2024-03-07T05:39:01;43.97;;;21.30;;
22144;SDS011;11238;48.730;11.566;2024-03-07T05:41:39;45.80;;;20.92;;
22144;SDS011;11238;48.730;11.566;2024-03-07T05:44:06;42.50;;;21.80;;
22144;SDS011;11238;48.730;11.566;2024-03-07T05:46:37;45.22;;;21.23;;
22144;SDS011;11238;48.730;11.566;2024-03-07T05:49:10;42.95;;;20.77;;
22144;SDS011;11238;48.730;11.566;2024-03-07T05:51:37;46.42;;;21.85;;
22144;SDS011;11238;48.730;11.566;2024-03-07T05:54:02;42.05;;;20.85;;
22144;SDS011;11238;48.730;11.566;2024-03-07T05:56:35;48.55;;;21.02;;
22144;SDS011;11238;48.730;11.566;2024-03-07T05:59:01;47.92;;;22.30;;
22144;SDS011;11238;48.730;11.566;2024-03-07T06:01:33;45.70;;;21.25;;
22144;SDS011;11238;48.730;11.566;2024-03-07T06:04:00;44.53;;;21.60;;
22144;SDS011;11238;48.730;11.566;2024-03-07T06:06:27;44.83;;;21.70;;
22144;SDS011;11238;48.730;11.566;2024-03-07T06:08:54;41.95;;;20.40;;
22144;SDS011;11238;48.730;11.566;2024-03-07T06:11:20;47.00;;;21.40;;
22144;SDS011;11238;48.730;11.566;2024-03-07T06:13:47;42.53;;;20.38;;
22144;SDS011;11238;48.730;11.566;2024-03-07T06:16:14;47.30;;;22.50;;
22144;SDS011;11238;48.730;11.566;2024-03-07T06:18:40;45.10;;;21.77;;
22144;SDS011;11238;48.730;11.566;2024-03-07T06:21:07;45.08;;;21.70;;
22144;SDS011;11238;48.730;11.566;2024-03-07T06:23:33;48.88;;;22.95;;
22144;SDS011;11238;48.730;11.566;2024-03-07T06:25:59;47.40;;;22.55;;
22144;SDS011;11238;48.730;11.566;2024-03-07T06:28:26;47.97;;;21.73;;
22144;SDS011;11238;48.730;11.566;2024-03-07T06:30:55;45.92;;;21.63;;
22144;SDS011;11238;48.730;11.566;2024-03-07T06:33:21;44.67;;;21.63;;
22144;SDS011;11238;48.730;11.566;2024-03-07T06:35:47;49.97;;;22.45;;
22144;SDS011;11238;48.730;11.566;2024-03-07T06:38:13;44.25;;;21.38;;
22144;SDS011;11238;48.730;11.566;2024-03-07T06:40:40;42.97;;;21.15;;
22144;SDS011;11238;48.730;11.566;2024-03-07T06:43:09;47.50;;;21.83;;
22144;SDS011;11238;48.730;11.566;2024-03-07T06:45:36;45.08;;;21.42;;
22144;SDS011;11238;48.730;11.566;2024-03-07T06:48:03;42.65;;;20.35;;
22144;SDS011;11238;48.730;11.566;2024-03-07T06:50:33;43.60;;;20.63;;
22144;SDS011;11238;48.730;11.566;2024-03-07T06:53:00;48.10;;;20.73;;
22144;SDS011;11238;48.730;11.566;2024-03-07T06:55:26;41.97;;;21.58;;
22144;SDS011;11238;48.730;11.566;2024-03-07T06:57:53;45.67;;;21.58;;
22144;SDS011;11238;48.730;11.566;2024-03-07T07:00:19;46.40;;;21.77;;
22144;SDS011;11238;48.730;11.566;2024-03-07T07:02:47;43.28;;;20.70;;
22144;SDS011;11238;48.730;11.566;2024-03-07T07:05:13;47.72;;;22.40;;
22144;SDS011;11238;48.730;11.566;2024-03-07T07:07:50;41.50;;;21.45;;
22144;SDS011;11238;48.730;11.566;2024-03-07T07:10:19;40.40;;;20.98;;
22144;SDS011;11238;48.730;11.566;2024-03-07T07:12:47;48.58;;;21.50;;
22144;SDS011;11238;48.730;11.566;2024-03-07T07:15:17;49.90;;;21.73;;
22144;SDS011;11238;48.730;11.566;2024-03-07T07:17:47;45.22;;;21.58;;
22144;SDS011;11238;48.730;11.566;2024-03-07T07:20:16;45.28;;;22.15;;
22144;SDS011;11238;48.730;11.566;2024-03-07T07:22:44;43.20;;;20.67;;
22144;SDS011;11238;48.730;11.566;2024-03-07T07:25:14;41.25;;;21.80;;
22144;SDS011;11238;48.730;11.566;2024-03-07T07:27:50;47.83;;;21.50;;
22144;SDS011;11238;48.730;11.566;2024-03-07T07:30:18;45.50;;;21.45;;
22144;SDS011;11238;48.730;11.566;2024-03-07T07:32:48;39.00;;;20.15;;
22144;SDS011;11238;48.730;11.566;2024-03-07T07:35:15;37.05;;;20.52;;
22144;SDS011;11238;48.730;11.566;2024-03-07T07:37:42;44.50;;;21.80;;
22144;SDS011;11238;48.730;11.566;2024-03-07T07:40:10;42.90;;;21.25;;
22144;SDS011;11238;48.730;11.566;2024-03-07T07:42:47;45.75;;;20.85;;
22144;SDS011;11238;48.730;11.566;2024-03-07T07:45:17;48.05;;;22.05;;
22144;SDS011;11238;48.730;11.566;2024-03-07T07:47:45;41.88;;;20.92;;
22144;SDS011;11238;48.730;11.566;2024-03-07T07:50:14;42.03;;;21.20;;
22144;SDS011;11238;48.730;11.566;2024-03-07T07:52:45;41.95;;;20.75;;
22144;SDS011;11238;48.730;11.566;2024-03-07T07:55:16;41.95;;;20.98;;
22144;SDS011;11238;48.730;11.566;2024-03-07T07:57:43;39.97;;;19.75;;
22144;SDS011;11238;48.730;11.566;2024-03-07T08:00:14;41.85;;;20.40;;
22144;SDS011;11238;48.730;11.566;2024-03-07T08:02:48;41.58;;;20.58;;
22144;SDS011;11238;48.730;11.566;2024-03-07T08:05:14;46.85;;;20.70;;
22144;SDS011;11238;48.730;11.566;2024-03-07T08:07:43;42.22;;;19.90;;
22144;SDS011;11238;48.730;11.566;2024-03-07T08:10:11;45.17;;;20.90;;
22144;SDS011;11238;48.730;11.566;2024-03-07T08:12:36;39.83;;;19.40;;
22144;SDS011;11238;48.730;11.566;2024-03-07T08:15:03;43.25;;;20.52;;
22144;SDS011;11238;48.730;11.566;2024-03-07T08:17:30;43.38;;;21.27;;
22144;SDS011;11238;48.730;11.566;2024-03-07T08:19:56;42.83;;;21.05;;
22144;SDS011;11238;48.730;11.566;2024-03-07T08:22:23;48.05;;;20.85;;
22144;SDS011;11238;48.730;11.566;2024-03-07T08:24:50;42.17;;;20.67;;
22144;SDS011;11238;48.730;11.566;2024-03-07T08:27:16;42.08;;;19.85;;
22144;SDS011;11238;48.730;11.566;2024-03-07T08:29:43;40.42;;;19.85;;
22144;SDS011;11238;48.730;11.566;2024-03-07T08:32:09;45.40;;;20.75;;
22144;SDS011;11238;48.730;11.566;2024-03-07T08:34:34;39.40;;;19.42;;
22144;SDS011;11238;48.730;11.566;2024-03-07T08:37:00;42.47;;;20.52;;
22144;SDS011;11238;48.730;11.566;2024-03-07T08:39:29;41.60;;;20.20;;
22144;SDS011;11238;48.730;11.566;2024-03-07T08:41:54;42.58;;;20.80;;
22144;SDS011;11238;48.730;11.566;2024-03-07T08:44:20;40.97;;;20.30;;
22144;SDS011;11238;48.730;11.566;2024-03-07T08:46:46;41.15;;;19.80;;
22144;SDS011;11238;48.730;11.566;2024-03-07T08:49:12;38.25;;;19.17;;
22144;SDS011;11238;48.730;11.566;2024-03-07T08:51:42;42.20;;;20.48;;
22144;SDS011;11238;48.730;11.566;2024-03-07T08:54:08;38.97;;;19.55;;
22144;SDS011;11238;48.730;11.566;2024-03-07T08:56:33;41.30;;;19.77;;
22144;SDS011;11238;48.730;11.566;2024-03-07T08:58:59;38.60;;;19.08;;
22144;SDS011;11238;48.730;11.566;2024-03-07T09:01:25;35.80;;;18.65;;
22144;SDS011;11238;48.730;11.566;2024-03-07T09:03:51;36.85;;;19.33;;
22144;SDS011;11238;48.730;11.566;2024-03-07T09:06:16;39.55;;;18.45;;
22144;SDS011;11238;48.730;11.566;2024-03-07T09:08:43;35.72;;;19.40;;
22144;SDS011;11238;48.730;11.566;2024-03-07T09:11:09;39.97;;;19.45;;
22144;SDS011;11238;48.730;11.566;2024-03-07T09:13:35;34.58;;;18.25;;
22144;SDS011;11238;48.730;11.566;2024-03-07T09:16:01;38.00;;;18.95;;
22144;SDS011;11238;48.730;11.566;2024-03-07T09:18:30;32.90;;;17.67;;
22144;SDS011;11238;48.730;11.566;2024-03-07T09:20:56;32.25;;;17.35;;
22144;SDS011;11238;48.730;11.566;2024-03-07T09:23:21;38.33;;;18.02;;
22144;SDS011;11238;48.730;11.566;2024-03-07T09:25:47;35.10;;;18.80;;
22144;SDS011;11238;48.730;11.566;2024-03-07T09:28:13;37.95;;;19.02;;
22144;SDS011;11238;48.730;11.566;2024-03-07T09:30:40;33.95;;;17.65;;
22144;SDS011;11238;48.730;11.566;2024-03-07T09:33:06;33.80;;;17.23;;
22144;SDS011;11238;48.730;11.566;2024-03-07T09:35:36;37.03;;;19.08;;
22144;SDS011;11238;48.730;11.566;2024-03-07T09:38:03;36.97;;;17.92;;
22144;SDS011;11238;48.730;11.566;2024-03-07T09:40:29;31.70;;;17.27;;
22144;SDS011;11238;48.730;11.566;2024-03-07T09:42:55;34.17;;;18.15;;
22144;SDS011;11238;48.730;11.566;2024-03-07T09:45:23;34.60;;;17.85;;
22144;SDS011;11238;48.730;11.566;2024-03-07T09:47:55;35.50;;;18.63;;
22144;SDS011;11238;48.730;11.566;2024-03-07T09:50:22;35.42;;;17.17;;
22144;SDS011;11238;48.730;11.566;2024-03-07T09:52:53;33.92;;;17.33;;
22144;SDS011;11238;48.730;11.566;2024-03-07T09:55:20;30.52;;;17.25;;
22144;SDS011;11238;48.730;11.566;2024-03-07T09:57:47;31.95;;;17.27;;
22144;SDS011;11238;48.730;11.566;2024-03-07T10:00:16;29.40;;;16.30;;
22144;SDS011;11238;48.730;11.566;2024-03-07T10:03:13;31.50;;;16.63;;
22144;SDS011;11238;48.730;11.566;2024-03-07T10:05:39;27.92;;;16.45;;
22144;SDS011;11238;48.730;11.566;2024-03-07T10:08:06;29.15;;;16.30;;
22144;SDS011;11238;48.730;11.566;2024-03-07T10:10:32;31.70;;;17.20;;
22144;SDS011;11238;48.730;11.566;2024-03-07T10:12:59;32.40;;;17.02;;
22144;SDS011;11238;48.730;11.566;2024-03-07T10:15:27;28.73;;;16.27;;
22144;SDS011;11238;48.730;11.566;2024-03-07T10:17:58;34.05;;;17.60;;
22144;SDS011;11238;48.730;11.566;2024-03-07T10:20:24;35.22;;;17.85;;
22144;SDS011;11238;48.730;11.566;2024-03-07T10:22:50;30.55;;;17.15;;
22144;SDS011;11238;48.730;11.566;2024-03-07T10:25:17;29.05;;;16.35;;
22144;SDS011;11238;48.730;11.566;2024-03-07T10:27:43;30.02;;;16.55;;
22144;SDS011;11238;48.730;11.566;2024-03-07T10:30:14;30.73;;;16.77;;
22144;SDS011;11238;48.730;11.566;2024-03-07T10:32:54;29.45;;;16.40;;
22144;SDS011;11238;48.730;11.566;2024-03-07T10:35:22;33.33;;;17.08;;
22144;SDS011;11238;48.730;11.566;2024-03-07T10:37:52;30.70;;;16.05;;
22144;SDS011;11238;48.730;11.566;2024-03-07T10:40:25;30.85;;;16.65;;
22144;SDS011;11238;48.730;11.566;2024-03-07T10:42:54;34.83;;;17.40;;
22144;SDS011;11238;48.730;11.566;2024-03-07T10:45:23;29.95;;;16.63;;
22144;SDS011;11238;48.730;11.566;2024-03-07T10:47:53;29.27;;;16.13;;
22144;SDS011;11238;48.730;11.566;2024-03-07T11:04:55;27.17;;;14.55;;
22144;SDS011;11238;48.730;11.566;2024-03-07T11:07:22;29.10;;;15.25;;
22144;SDS011;11238;48.730;11.566;2024-03-07T11:09:49;28.10;;;15.05;;
22144;SDS011;11238;48.730;11.566;2024-03-07T11:12:21;27.65;;;14.75;;
22144;SDS011;11238;48.730;11.566;2024-03-07T11:14:50;24.35;;;13.65;;
22144;SDS011;11238;48.730;11.566;2024-03-07T11:17:17;25.42;;;14.60;;
22144;SDS011;11238;48.730;11.566;2024-03-07T11:19:45;23.05;;;13.43;;
22144;SDS011;11238;48.730;11.566;2024-03-07T11:22:27;23.13;;;13.07;;
22144;SDS011;11238;48.730;11.566;2024-03-07T11:25:00;21.05;;;12.30;;
22144;SDS011;11238;48.730;11.566;2024-03-07T11:27:33;22.30;;;12.98;;
22144;SDS011;11238;48.730;11.566;2024-03-07T11:30:05;24.50;;;13.38;;
22144;SDS011;11238;48.730;11.566;2024-03-07T11:32:38;22.65;;;12.88;;
22144;SDS011;11238;48.730;11.566;2024-03-07T11:35:04;24.20;;;13.25;;
22144;SDS011;11238;48.730;11.566;2024-03-07T11:37:40;22.67;;;12.52;;
22144;SDS011;11238;48.730;11.566;2024-03-07T11:42:52;21.67;;;12.40;;
22144;SDS011;11238;48.730;11.566;2024-03-07T11:45:19;23.58;;;12.73;;
22144;SDS011;11238;48.730;11.566;2024-03-07T11:47:56;25.52;;;13.73;;
22144;SDS011;11238;48.730;11.566;2024-03-07T11:50:26;23.27;;;13.57;;
22144;SDS011;11238;48.730;11.566;2024-03-07T11:52:52;22.23;;;12.40;;
22144;SDS011;11238;48.730;11.566;2024-03-07T11:55:20;20.65;;;12.18;;
22144;SDS011;11238;48.730;11.566;2024-03-07T11:57:47;20.65;;;12.05;;
22144;SDS011;11238;48.730;11.566;2024-03-07T12:00:14;22.25;;;12.23;;
22144;SDS011;11238;48.730;11.566;2024-03-07T12:02:42;25.23;;;13.38;;
22144;SDS011;11238;48.730;11.566;2024-03-07T12:05:08;23.63;;;12.95;;
22144;SDS011;11238;48.730;11.566;2024-03-07T12:07:34;22.00;;;12.70;;
22144;SDS011;11238;48.730;11.566;2024-03-07T12:10:04;23.17;;;12.85;;
22144;SDS011;11238;48.730;11.566;2024-03-07T12:12:30;23.73;;;12.65;;
22144;SDS011;11238;48.730;11.566;2024-03-07T12:14:58;24.40;;;13.02;;
22144;SDS011;11238;48.730;11.566;2024-03-07T12:17:24;20.33;;;12.32;;
22144;SDS011;11238;48.730;11.566;2024-03-07T12:19:50;23.10;;;12.25;;
22144;SDS011;11238;48.730;11.566;2024-03-07T12:22:20;23.58;;;12.05;;
22144;SDS011;11238;48.730;11.566;2024-03-07T12:25:02;22.90;;;11.95;;
22144;SDS011;11238;48.730;11.566;2024-03-07T12:27:29;28.45;;;13.35;;
22144;SDS011;11238;48.730;11.566;2024-03-07T12:29:55;39.28;;;17.20;;
22144;SDS011;11238;48.730;11.566;2024-03-07T12:32:21;28.00;;;14.13;;
22144;SDS011;11238;48.730;11.566;2024-03-07T12:34:46;25.60;;;14.43;;
22144;SDS011;11238;48.730;11.566;2024-03-07T12:37:15;27.70;;;13.43;;
22144;SDS011;11238;48.730;11.566;2024-03-07T12:39:42;17.88;;;10.48;;
22144;SDS011;11238;48.730;11.566;2024-03-07T12:42:15;22.13;;;12.00;;
22144;SDS011;11238;48.730;11.566;2024-03-07T12:47:15;15.43;;;9.55;;
22144;SDS011;11238;48.730;11.566;2024-03-07T12:49:45;16.83;;;9.23;;
22144;SDS011;11238;48.730;11.566;2024-03-07T12:52:11;14.85;;;8.73;;
22144;SDS011;11238;48.730;11.566;2024-03-07T12:54:41;14.23;;;8.02;;
22144;SDS011;11238;48.730;11.566;2024-03-07T13:08:36;14.02;;;8.60;;
22144;SDS011;11238;48.730;11.566;2024-03-07T13:11:02;16.17;;;8.48;;
22144;SDS011;11238;48.730;11.566;2024-03-07T13:13:28;19.42;;;9.45;;
22144;SDS011;11238;48.730;11.566;2024-03-07T13:15:56;18.30;;;9.88;;
22144;SDS011;11238;48.730;11.566;2024-03-07T13:18:22;14.13;;;8.35;;
22144;SDS011;11238;48.730;11.566;2024-03-07T13:20:48;22.10;;;11.82;;
22144;SDS011;11238;48.730;11.566;2024-03-07T13:23:14;20.83;;;11.10;;
22144;SDS011;11238;48.730;11.566;2024-03-07T13:25:40;24.88;;;12.00;;
22144;SDS011;11238;48.730;11.566;2024-03-07T13:30:37;20.63;;;11.00;;
22144;SDS011;11238;48.730;11.566;2024-03-07T13:33:03;18.80;;;11.23;;
22144;SDS011;11238;48.730;11.566;2024-03-07T13:35:29;19.55;;;11.23;;
22144;SDS011;11238;48.730;11.566;2024-03-07T13:37:55;24.63;;;12.10;;
22144;SDS011;11238;48.730;11.566;2024-03-07T13:40:25;22.83;;;12.10;;
22144;SDS011;11238;48.730;11.566;2024-03-07T13:42:53;23.58;;;11.75;;
22144;SDS011;11238;48.730;11.566;2024-03-07T13:45:30;24.45;;;12.52;;
22144;SDS011;11238;48.730;11.566;2024-03-07T13:48:09;25.85;;;13.23;;
22144;SDS011;11238;48.730;11.566;2024-03-07T13:50:38;25.98;;;13.63;;
22144;SDS011;11238;48.730;11.566;2024-03-07T13:53:11;26.33;;;13.07;;
22144;SDS011;11238;48.730;11.566;2024-03-07T13:55:52;26.95;;;12.90;;
22144;SDS011;11238;48.730;11.566;2024-03-07T14:03:45;25.80;;;13.88;;
22144;SDS011;11238;48.730;11.566;2024-03-07T14:09:25;25.42;;;13.63;;
22144;SDS011;11238;48.730;11.566;2024-03-07T14:12:22;26.20;;;13.80;;
22144;SDS011;11238;48.730;11.566;2024-03-07T14:20:47;26.23;;;13.20;;
22144;SDS011;11238;48.730;11.566;2024-03-07T14:23:19;27.50;;;14.07;;
22144;SDS011;11238;48.730;11.566;2024-03-07T14:29:28;26.02;;;14.05;;
22144;SDS011;11238;48.730;11.566;2024-03-07T14:32:08;23.27;;;12.52;;
22144;SDS011;11238;48.730;11.566;2024-03-07T14:39:48;22.93;;;13.13;;
22144;SDS011;11238;48.730;11.566;2024-03-07T14:42:18;25.33;;;13.18;;
22144;SDS011;11238;48.730;11.566;2024-03-07T14:44:45;23.45;;;13.23;;
22144;SDS011;11238;48.730;11.566;2024-03-07T14:47:13;24.10;;;11.90;;
22144;SDS011;11238;48.730;11.566;2024-03-07T14:49:44;23.52;;;11.77;;
22144;SDS011;11238;48.730;11.566;2024-03-07T14:52:10;24.35;;;12.70;;
22144;SDS011;11238;48.730;11.566;2024-03-07T14:54:39;23.10;;;11.55;;
22144;SDS011;11238;48.730;11.566;2024-03-07T14:57:07;27.77;;;12.30;;
22144;SDS011;11238;48.730;11.566;2024-03-07T14:59:35;19.38;;;11.50;;
22144;SDS011;11238;48.730;11.566;2024-03-07T15:02:02;24.65;;;12.07;;
22144;SDS011;11238;48.730;11.566;2024-03-07T15:04:29;21.73;;;12.63;;
22144;SDS011;11238;48.730;11.566;2024-03-07T15:06:57;26.67;;;12.00;;
22144;SDS011;11238;48.730;11.566;2024-03-07T15:09:23;21.70;;;11.90;;